createdAt,value
2023-04-17T00:01:39.037Z,100666.25
2023-04-17T00:04:11.156Z,100659.81
2023-04-17T00:06:43.544Z,100670.66
2023-04-17T00:09:16.450Z,100661.38
2023-04-17T00:11:47.093Z,100657.75
2023-04-17T00:14:20.548Z,100663.81
2023-04-17T00:16:53.719Z,100659.34
2023-04-17T00:19:24.908Z,100668.22
2023-04-17T00:21:55.811Z,100669.03
2023-04-17T00:24:29.154Z,100667.44
2023-04-17T00:27:07.048Z,100669.03
2023-04-17T00:29:37.870Z,100659.34
2023-04-17T00:32:06.856Z,100661.78
2023-04-17T00:34:35.501Z,100655.72
2023-04-17T00:37:06.161Z,100652.88
2023-04-17T00:39:34.530Z,100651.28
2023-04-17T00:42:05.123Z,100653.28
2023-04-17T00:44:32.857Z,100650.84
2023-04-17T00:47:03.925Z,100651.28
2023-04-17T00:49:32.645Z,100642.78
2023-04-17T00:52:01.523Z,100639.16
2023-04-17T00:54:29.717Z,100641.56
2023-04-17T00:56:58.278Z,100641.16
2023-04-17T00:59:32.642Z,100644.38
2023-04-17T01:02:00.528Z,100642.38
2023-04-17T01:04:31.548Z,100640.34
2023-04-17T01:07:00.213Z,100639.13
2023-04-17T01:09:30.912Z,100633.53
2023-04-17T01:12:23.711Z,100637.53
2023-04-17T01:14:58.906Z,100639.56
2023-04-17T01:17:32.540Z,100636.78
2023-04-17T01:20:09.023Z,100635.16
2023-04-17T01:22:36.853Z,100636.78
2023-04-17T01:25:08.494Z,100635.59
2023-04-17T01:27:46.409Z,100628.34
2023-04-17T01:30:14.208Z,100629.56
2023-04-17T01:32:56.314Z,100628.75
2023-04-17T01:35:27.538Z,100634.41
2023-04-17T01:38:01.480Z,100635.63
2023-04-17T01:40:34.506Z,100636.84
2023-04-17T01:43:07.578Z,100641.72
2023-04-17T01:45:37.732Z,100638.47
2023-04-17T01:48:06.445Z,100640.88
2023-04-17T01:50:41.395Z,100630.44
2023-04-17T01:53:11.581Z,100640.94
2023-04-17T01:55:42.372Z,100629.66
2023-04-17T01:58:22.349Z,100637.69
2023-04-17T02:00:56.166Z,100635.28
2023-04-17T02:03:32.122Z,100644.16
2023-04-17T02:06:00.811Z,100638.13
2023-04-17T02:08:31.591Z,100637.25
2023-04-17T02:11:05.421Z,100641.31
2023-04-17T02:13:33.302Z,100634.50
2023-04-17T02:16:07.569Z,100634.91
2023-04-17T02:18:42.144Z,100634.09
2023-04-17T02:21:09.969Z,100638.53
2023-04-17T02:23:45.186Z,100630.84
2023-04-17T02:26:15.975Z,100632.88
2023-04-17T02:28:48.396Z,100632.47
2023-04-17T02:31:23.491Z,100631.25
2023-04-17T02:33:55.482Z,100628.88
2023-04-17T02:36:23.783Z,100639.31
2023-04-17T02:38:55.545Z,100631.25
2023-04-17T02:41:29.384Z,100630.41
2023-04-17T02:44:01.188Z,100620.28
2023-04-17T02:46:34.604Z,100626.75
2023-04-17T02:49:08.265Z,100627.50
2023-04-17T02:51:40.687Z,100631.13
2023-04-17T02:54:12.483Z,100624.66
2023-04-17T02:56:43.414Z,100620.19
2023-04-17T02:59:15.507Z,100626.22
2023-04-17T03:01:45.782Z,100625.78
2023-04-17T03:04:18.587Z,100624.16
2023-04-17T03:06:49.400Z,100627.38
2023-04-17T03:09:22.542Z,100628.19
2023-04-17T03:11:54.351Z,100632.94
2023-04-17T03:14:24.665Z,100627.34
2023-04-17T03:17:01.480Z,100632.59
2023-04-17T03:19:35.729Z,100623.34
2023-04-17T03:22:11.394Z,100635.06
2023-04-17T03:24:47.908Z,100626.19
2023-04-17T03:27:24.536Z,100624.56
2023-04-17T03:30:02.316Z,100623.41
2023-04-17T03:32:38.648Z,100636.28
2023-04-17T03:35:14.656Z,100636.69
2023-04-17T03:37:51.505Z,100639.09
2023-04-17T03:40:24.682Z,100631.00
2023-04-17T03:42:59.246Z,100633.84
2023-04-17T03:45:36.733Z,100639.06
2023-04-17T03:48:12.763Z,100630.16
2023-04-17T03:50:48.219Z,100627.28
2023-04-17T03:53:27.478Z,100623.66
2023-04-17T03:55:58.767Z,100631.66
2023-04-17T03:58:40.768Z,100622.41
2023-04-17T04:01:22.186Z,100630.06
2023-04-17T04:04:26.220Z,100636.91
2023-04-17T04:07:07.248Z,100630.47
2023-04-17T04:09:49.207Z,100633.66
2023-04-17T04:12:30.728Z,100630.44
2023-04-17T04:15:08.698Z,100632.44
2023-04-17T04:17:40.924Z,100634.84
2023-04-17T04:20:17.778Z,100632.84
2023-04-17T04:22:51.724Z,100638.91
2023-04-17T04:25:41.714Z,100638.84
2023-04-17T04:28:25.678Z,100643.69
2023-04-17T04:31:05.773Z,100648.53
2023-04-17T04:33:55.050Z,100638.44
2023-04-17T04:36:30.173Z,100642.88
2023-04-17T04:39:26.870Z,100633.63
2023-04-17T04:42:10.028Z,100643.28
2023-04-17T04:45:07.387Z,100642.50
2023-04-17T04:47:36.528Z,100641.28
2023-04-17T04:50:16.741Z,100647.31
2023-04-17T04:52:53.185Z,100642.06
2023-04-17T04:56:04.073Z,100638.44
2023-04-17T04:58:43.664Z,100634.41
2023-04-17T05:01:24.249Z,100627.16
2023-04-17T05:04:01.138Z,100641.28
2023-04-17T05:06:41.785Z,100644.91
2023-04-17T05:09:23.679Z,100648.13
2023-04-17T05:12:03.136Z,100648.13
2023-04-17T05:14:39.229Z,100655.75
2023-04-17T05:17:17.548Z,100661.41
2023-04-17T05:19:51.058Z,100662.66
2023-04-17T05:22:21.909Z,100663.06
2023-04-17T05:25:08.769Z,100658.25
2023-04-17T05:27:40.007Z,100674.38
2023-04-17T05:30:15.943Z,100665.91
2023-04-17T05:32:54.875Z,100662.28
2023-04-17T05:35:47.973Z,100662.41
2023-04-17T05:38:25.088Z,100661.13
2023-04-17T05:40:55.629Z,100655.47
2023-04-17T05:43:28.037Z,100661.13
2023-04-17T05:46:06.871Z,100659.53
2023-04-17T05:48:37.734Z,100659.56
2023-04-17T05:51:15.250Z,100669.59
2023-04-17T05:53:49.524Z,100669.56
2023-04-17T05:56:23.579Z,100674.41
2023-04-17T05:58:54.605Z,100672.16
2023-04-17T06:01:30.751Z,100679.41
2023-04-17T06:04:08.447Z,100676.25
2023-04-17T06:06:39.380Z,100679.53
2023-04-17T06:09:12.930Z,100684.41
2023-04-17T06:11:48.946Z,100688.41
2023-04-17T06:14:20.085Z,100688.06
2023-04-17T06:16:51.769Z,100687.25
2023-04-17T06:19:22.576Z,100700.25
2023-04-17T06:21:51.027Z,100692.19
2023-04-17T06:24:20.721Z,100701.50
2023-04-17T06:26:52.054Z,100692.97
2023-04-17T06:29:19.988Z,100697.81
2023-04-17T06:31:51.622Z,100707.97
2023-04-17T06:34:22.007Z,100706.38
2023-04-17T06:36:53.876Z,100705.16
2023-04-17T06:39:23.650Z,100705.16
2023-04-17T06:41:59.404Z,100712.81
2023-04-17T06:44:38.743Z,100708.41
2023-04-17T06:47:21.592Z,100710.78
2023-04-17T06:50:00.925Z,100714.44
2023-04-17T06:52:37.354Z,100717.69
2023-04-17T06:55:13.701Z,100716.91
2023-04-17T06:57:52.423Z,100721.00
2023-04-17T07:00:38.486Z,100723.41
2023-04-17T07:03:14.205Z,100725.03
2023-04-17T07:05:47.735Z,100717.81
2023-04-17T07:08:25.146Z,100725.88
2023-04-17T07:11:03.037Z,100734.81
2023-04-17T07:13:40.165Z,100730.78
2023-04-17T07:16:21.808Z,100728.00
2023-04-17T07:18:59.333Z,100730.47
2023-04-17T07:21:37.611Z,100730.09
2023-04-17T07:24:13.554Z,100720.88
2023-04-17T07:26:49.793Z,100727.31
2023-04-17T07:29:23.716Z,100729.69
2023-04-17T07:31:55.030Z,100723.69
2023-04-17T07:34:33.670Z,100724.50
2023-04-17T07:37:15.977Z,100733.38
2023-04-17T07:39:56.701Z,100732.16
2023-04-17T07:42:31.708Z,100740.69
2023-04-17T07:45:08.831Z,100743.81
2023-04-17T07:47:42.184Z,100740.97
2023-04-17T07:50:24.021Z,100750.22
2023-04-17T07:53:04.224Z,100746.59
2023-04-17T07:55:45.635Z,100751.91
2023-04-17T07:58:27.412Z,100753.09
2023-04-17T08:01:11.009Z,100762.78
2023-04-17T08:03:47.347Z,100765.94
2023-04-17T08:06:19.115Z,100765.19
2023-04-17T08:08:57.821Z,100769.56
2023-04-17T08:11:26.157Z,100768.81
2023-04-17T08:13:57.322Z,100772.06
2023-04-17T08:16:32.079Z,100768.84
2023-04-17T08:19:05.517Z,100775.25
2023-04-17T08:21:36.194Z,100774.44
2023-04-17T08:24:13.075Z,100774.47
2023-04-17T08:26:43.616Z,100768.44
2023-04-17T08:29:21.418Z,100772.47
2023-04-17T08:31:53.385Z,100768.00
2023-04-17T08:34:33.106Z,100775.69
2023-04-17T08:37:09.210Z,100779.69
2023-04-17T08:39:52.738Z,100774.44
2023-04-17T08:42:30.640Z,100787.34
2023-04-17T08:45:17.171Z,100779.25
2023-04-17T08:48:02.547Z,100779.66
2023-04-17T08:50:35.492Z,100780.88
2023-04-17T08:53:10.148Z,100781.28
2023-04-17T08:55:41.522Z,100779.25
2023-04-17T08:58:24.025Z,100783.25
2023-04-17T09:00:56.100Z,100776.44
2023-04-17T09:03:41.284Z,100786.94
2023-04-17T09:06:16.018Z,100785.28
2023-04-17T09:09:01.872Z,100779.22
2023-04-17T09:11:36.976Z,100783.28
2023-04-17T09:14:31.623Z,100782.44
2023-04-17T09:17:07.431Z,100782.09
2023-04-17T09:19:58.355Z,100771.97
2023-04-17T09:22:40.305Z,100774.84
2023-04-17T09:25:21.599Z,100775.69
2023-04-17T09:28:04.465Z,100771.22
2023-04-17T09:30:47.954Z,100772.00
2023-04-17T09:33:27.334Z,100773.22
2023-04-17T09:35:55.451Z,100772.41
2023-04-17T09:38:43.440Z,100764.75
2023-04-17T09:41:32.471Z,100764.72
2023-04-17T09:44:06.549Z,100777.69
2023-04-17T09:46:49.328Z,100764.75
2023-04-17T09:49:33.904Z,100771.63
2023-04-17T09:52:08.054Z,100765.94
2023-04-17T09:54:40.545Z,100767.16
2023-04-17T09:57:13.612Z,100764.72
2023-04-17T09:59:50.712Z,100758.28
2023-04-17T10:02:24.191Z,100765.59
2023-04-17T10:04:58.069Z,100763.13
2023-04-17T10:07:26.351Z,100763.56
2023-04-17T10:09:56.953Z,100763.97
2023-04-17T10:12:26.499Z,100758.34
2023-04-17T10:15:01.298Z,100748.25
2023-04-17T10:17:32.699Z,100752.69
2023-04-17T10:20:20.489Z,100750.28
2023-04-17T10:23:01.382Z,100747.88
2023-04-17T10:25:35.529Z,100747.88
2023-04-17T10:28:09.424Z,100748.25
2023-04-17T10:30:55.503Z,100753.50
2023-04-17T10:33:27.391Z,100738.97
2023-04-17T10:36:08.085Z,100747.44
2023-04-17T10:38:43.857Z,100745.50
2023-04-17T10:41:15.245Z,100741.44
2023-04-17T10:43:52.493Z,100733.34
2023-04-17T10:46:32.450Z,100742.25
2023-04-17T10:49:06.245Z,100726.88
2023-04-17T10:51:50.162Z,100719.63
2023-04-17T10:54:33.235Z,100720.44
2023-04-17T10:57:15.102Z,100726.09
2023-04-17T11:00:14.061Z,100725.28
2023-04-17T11:02:56.141Z,100726.50
2023-04-17T11:05:33.286Z,100726.09
2023-04-17T11:08:04.212Z,100719.25
2023-04-17T11:10:38.339Z,100717.22
2023-04-17T11:13:18.033Z,100720.44
2023-04-17T11:16:01.607Z,100713.16
2023-04-17T11:18:35.155Z,100718.81
2023-04-17T11:21:15.333Z,100715.63
2023-04-17T11:23:52.738Z,100703.09
2023-04-17T11:26:30.192Z,100697.44
2023-04-17T11:29:02.064Z,100698.25
2023-04-17T11:31:32.850Z,100705.13
2023-04-17T11:34:11.313Z,100707.53
2023-04-17T11:36:41.836Z,100705.94
2023-04-17T11:39:21.596Z,100700.72
2023-04-17T11:42:00.165Z,100704.34
2023-04-17T11:44:34.092Z,100693.81
2023-04-17T11:47:13.675Z,100705.97
2023-04-17T11:49:47.116Z,100703.94
2023-04-17T11:52:21.085Z,100705.16
2023-04-17T11:55:02.873Z,100710.44
2023-04-17T11:57:45.747Z,100710.44
2023-04-17T12:00:20.715Z,100710.44
2023-04-17T12:02:52.151Z,100712.47
2023-04-17T12:05:21.532Z,100706.03
2023-04-17T12:08:12.666Z,100709.28
2023-04-17T12:10:52.677Z,100712.50
2023-04-17T12:13:23.996Z,100713.72
2023-04-17T12:15:58.711Z,100714.53
2023-04-17T12:18:35.476Z,100708.44
2023-04-17T12:21:03.712Z,100705.22
2023-04-17T12:23:36.909Z,100706.03
2023-04-17T12:26:13.546Z,100699.94
2023-04-17T12:28:44.984Z,100704.41
2023-04-17T12:31:23.119Z,100692.28
2023-04-17T12:33:53.976Z,100697.13
2023-04-17T12:36:35.774Z,100691.84
2023-04-17T12:39:11.263Z,100694.69
2023-04-17T12:41:45.749Z,100690.28
2023-04-17T12:44:24.618Z,100683.78
2023-04-17T12:46:55.947Z,100683.38
2023-04-17T12:49:23.905Z,100685.41
2023-04-17T12:51:57.746Z,100682.97
2023-04-17T12:54:25.671Z,100682.59
2023-04-17T12:56:59.089Z,100685.34
2023-04-17T12:59:30.716Z,100689.81
2023-04-17T13:02:01.489Z,100673.56
2023-04-17T13:04:34.359Z,100682.88
2023-04-17T13:07:04.425Z,100674.41
2023-04-17T13:09:37.620Z,100677.66
2023-04-17T13:12:12.515Z,100667.50
2023-04-17T13:14:45.794Z,100667.97
2023-04-17T13:17:21.316Z,100662.25
2023-04-17T13:19:50.494Z,100667.94
2023-04-17T13:22:23.754Z,100664.69
2023-04-17T13:25:04.556Z,100659.09
2023-04-17T13:27:40.314Z,100660.72
2023-04-17T13:30:18.991Z,100657.09
2023-04-17T13:32:51.358Z,100653.41
2023-04-17T13:35:25.173Z,100660.69
2023-04-17T13:37:57.941Z,100652.97
2023-04-17T13:40:30.795Z,100648.88
2023-04-17T13:43:10.279Z,100649.69
2023-04-17T13:45:47.151Z,100641.63
2023-04-17T13:48:17.452Z,100643.69
2023-04-17T13:50:53.117Z,100640.50
2023-04-17T13:53:23.780Z,100631.53
2023-04-17T13:55:59.551Z,100642.06
2023-04-17T13:58:36.321Z,100633.16
2023-04-17T14:01:15.554Z,100628.34
2023-04-17T14:03:54.174Z,100632.78
2023-04-17T14:06:38.011Z,100623.44
2023-04-17T14:09:17.488Z,100627.91
2023-04-17T14:11:51.518Z,100627.50
2023-04-17T14:14:36.392Z,100629.50
2023-04-17T14:17:13.458Z,100642.09
2023-04-17T14:19:46.710Z,100631.59
2023-04-17T14:22:23.836Z,100640.50
2023-04-17T14:25:02.200Z,100627.50
2023-04-17T14:27:36.504Z,100628.28
2023-04-17T14:30:16.297Z,100619.75
2023-04-17T14:32:55.062Z,100620.63
2023-04-17T14:35:28.296Z,100616.19
2023-04-17T14:38:07.026Z,100610.50
2023-04-17T14:40:35.150Z,100616.22
2023-04-17T14:43:17.589Z,100617.44
2023-04-17T14:45:56.046Z,100618.28
2023-04-17T14:48:34.357Z,100615.88
2023-04-17T14:51:15.327Z,100604.56
2023-04-17T14:53:53.202Z,100593.59
2023-04-17T14:56:29.396Z,100598.47
2023-04-17T14:59:05.856Z,100600.09
2023-04-17T15:01:38.384Z,100604.16
2023-04-17T15:04:19.040Z,100606.56
2023-04-17T15:06:55.212Z,100605.34
2023-04-17T15:09:32.219Z,100606.97
2023-04-17T15:12:05.687Z,100596.50
2023-04-17T15:14:36.379Z,100607.00
2023-04-17T15:17:09.063Z,100607.81
2023-04-17T15:19:41.790Z,100615.09
2023-04-17T15:22:14.749Z,100620.34
2023-04-17T15:24:48.315Z,100621.94
2023-04-17T15:27:24.562Z,100623.97
2023-04-17T15:30:14.537Z,100626.81
2023-04-17T15:32:58.735Z,100633.25
2023-04-17T15:35:34.240Z,100634.50
2023-04-17T15:38:15.667Z,100629.25
2023-04-17T15:41:03.061Z,100626.00
2023-04-17T15:43:33.926Z,100634.50
2023-04-17T15:46:16.094Z,100630.84
2023-04-17T15:49:04.886Z,100627.59
2023-04-17T15:51:37.269Z,100624.78
2023-04-17T15:54:12.268Z,100630.03
2023-04-17T15:56:51.091Z,100623.56
2023-04-17T15:59:33.705Z,100626.00
2023-04-17T16:02:02.196Z,100621.97
2023-04-17T16:04:39.775Z,100621.97
2023-04-17T16:07:14.306Z,100618.31
2023-04-17T16:09:46.751Z,100622.38
2023-04-17T16:12:14.773Z,100621.16
2023-04-17T16:14:45.344Z,100612.25
2023-04-17T16:17:23.724Z,100617.91
2023-04-17T16:19:58.864Z,100621.53
2023-04-17T16:22:27.817Z,100622.75
2023-04-17T16:25:02.920Z,100628.41
2023-04-17T16:27:39.433Z,100628.44
2023-04-17T16:30:08.346Z,100623.56
2023-04-17T16:32:39.021Z,100630.03
2023-04-17T16:35:12.189Z,100629.63
2023-04-17T16:37:43.273Z,100626.81
2023-04-17T16:40:17.977Z,100629.22
2023-04-17T16:42:47.936Z,100632.84
2023-04-17T16:45:24.035Z,100625.19
2023-04-17T16:47:59.612Z,100629.66
2023-04-17T16:50:30.712Z,100631.25
2023-04-17T16:53:09.401Z,100627.63
2023-04-17T16:55:47.986Z,100627.63
2023-04-17T16:58:27.381Z,100623.19
2023-04-17T17:01:02.134Z,100629.63
2023-04-17T17:03:37.984Z,100631.25
2023-04-17T17:06:12.932Z,100630.84
2023-04-17T17:08:46.726Z,100632.84
2023-04-17T17:11:21.139Z,100631.25
2023-04-17T17:13:49.815Z,100632.06
2023-04-17T17:16:21.461Z,100631.25
2023-04-17T17:18:52.430Z,100627.22
2023-04-17T17:21:22.448Z,100624.78
2023-04-17T17:23:53.532Z,100636.91
2023-04-17T17:26:29.449Z,100636.50
2023-04-17T17:29:05.688Z,100636.09
2023-04-17T17:31:41.026Z,100635.69
2023-04-17T17:34:25.965Z,100640.09
2023-04-17T17:37:08.307Z,100636.84
2023-04-17T17:39:42.779Z,100638.88
2023-04-17T17:42:16.703Z,100637.25
2023-04-17T17:44:49.763Z,100641.28
2023-04-17T17:47:30.960Z,100642.50
2023-04-17T17:49:59.390Z,100643.72
2023-04-17T17:52:34.454Z,100645.31
2023-04-17T17:55:13.809Z,100648.56
2023-04-17T17:57:51.102Z,100646.13
2023-04-17T18:00:29.604Z,100640.47
2023-04-17T18:03:10.857Z,100646.91
2023-04-17T18:05:46.521Z,100641.69
2023-04-17T18:08:25.080Z,100652.19
2023-04-17T18:11:01.202Z,100652.56
2023-04-17T18:13:34.325Z,100652.19
2023-04-17T18:16:08.857Z,100649.75
2023-04-17T18:18:52.394Z,100654.16
2023-04-17T18:21:23.170Z,100656.59
2023-04-17T18:43:47.949Z,100666.69
2023-04-17T18:46:26.300Z,100667.09
2023-04-17T18:52:05.714Z,100674.38
2023-04-17T18:54:39.007Z,100668.72
2023-04-17T18:57:16.445Z,100660.25
2023-04-17T18:59:52.689Z,100668.28
2023-04-17T19:02:21.635Z,100670.69
2023-04-17T19:04:56.938Z,100665.03
2023-04-17T19:07:30.839Z,100670.31
2023-04-17T19:10:08.405Z,100663.00
2023-04-17T19:12:45.254Z,100667.06
2023-04-17T19:15:22.072Z,100666.25
2023-04-17T19:18:00.277Z,100674.31
2023-04-17T19:20:39.976Z,100664.59
2023-04-17T19:23:27.432Z,100666.22
2023-04-17T19:26:09.804Z,100676.72
2023-04-17T19:28:48.969Z,100670.66
2023-04-17T19:31:24.830Z,100673.06
2023-04-17T19:33:57.527Z,100676.31
2023-04-17T19:36:36.853Z,100670.63
2023-04-17T19:39:18.160Z,100666.19
2023-04-17T19:41:52.107Z,100671.81
2023-04-17T19:44:28.176Z,100669.41
2023-04-17T19:47:04.598Z,100660.94
2023-04-17T19:49:37.865Z,100663.75
2023-04-17T19:52:16.779Z,100669.44
2023-04-17T19:54:55.417Z,100667.00
2023-04-17T19:57:33.432Z,100670.22
2023-04-17T20:00:10.288Z,100668.59
2023-04-17T20:02:48.849Z,100663.34
2023-04-17T20:05:31.176Z,100660.13
2023-04-17T20:08:09.420Z,100671.81
2023-04-17T20:10:48.716Z,100664.97
2023-04-17T20:13:25.833Z,100664.56
2023-04-17T20:16:02.535Z,100665.38
2023-04-17T20:18:46.496Z,100658.91
2023-04-17T20:21:22.177Z,100666.56
2023-04-17T20:24:02.862Z,100663.75
2023-04-17T20:26:42.043Z,100662.16
2023-04-17T20:29:19.267Z,100657.28
2023-04-17T20:31:57.928Z,100659.69
2023-04-17T20:34:35.685Z,100666.16
2023-04-17T20:37:09.056Z,100664.53
2023-04-17T20:39:44.801Z,100656.88
2023-04-17T20:42:23.657Z,100661.72
2023-04-17T20:44:56.699Z,100662.94
2023-04-17T20:47:46.164Z,100659.28
2023-04-17T20:50:26.262Z,100654.03
2023-04-17T20:53:02.349Z,100652.81
2023-04-17T20:55:46.884Z,100648.38
2023-04-17T20:58:26.391Z,100660.91
2023-04-17T21:01:07.523Z,100656.44
2023-04-17T21:03:52.869Z,100657.22
2023-04-17T21:06:33.269Z,100668.16
2023-04-17T21:09:16.352Z,100664.47
2023-04-17T21:11:58.234Z,100664.06
2023-04-17T21:14:35.955Z,100662.06
2023-04-17T21:17:11.804Z,100662.50
2023-04-17T21:19:42.841Z,100666.91
2023-04-17T21:22:25.272Z,100670.13
2023-04-17T21:24:58.271Z,100674.13
2023-04-17T21:27:36.699Z,100670.97
2023-04-17T21:30:11.114Z,100662.03
2023-04-17T21:32:48.336Z,100662.81
2023-04-17T21:35:26.913Z,100666.88
2023-04-17T21:37:59.168Z,100666.88
2023-04-17T21:40:37.078Z,100668.47
2023-04-17T21:43:10.397Z,100665.63
2023-04-17T21:45:48.248Z,100660.00
2023-04-17T21:48:21.201Z,100662.81
2023-04-17T21:50:55.816Z,100667.25
2023-04-17T21:53:34.037Z,100660.78
2023-04-17T21:56:09.851Z,100663.59
2023-04-17T21:58:51.781Z,100664.41
2023-04-17T22:01:23.258Z,100662.00
2023-04-17T22:04:00.463Z,100657.16
2023-04-17T22:06:39.998Z,100662.81
2023-04-17T22:09:10.680Z,100662.78
2023-04-17T22:11:39.623Z,100662.38
2023-04-17T22:14:16.286Z,100660.00
2023-04-17T22:16:55.550Z,100667.22
2023-04-17T22:19:34.326Z,100658.75
2023-04-17T22:22:10.698Z,100666.03
2023-04-17T22:24:46.842Z,100657.56
2023-04-17T22:27:16.398Z,100661.56
2023-04-17T22:29:47.089Z,100661.56
2023-04-17T22:32:23.052Z,100660.34
2023-04-17T22:34:58.594Z,100658.75
2023-04-17T22:37:34.468Z,100662.78
2023-04-17T22:40:08.347Z,100666.41
2023-04-17T22:42:44.447Z,100657.91
2023-04-17T22:45:20.301Z,100670.44
2023-04-17T22:48:01.223Z,100663.56
2023-04-17T22:50:38.163Z,100668.41
2023-04-17T22:53:13.776Z,100670.00
2023-04-17T22:55:49.669Z,100665.94
2023-04-17T22:58:28.055Z,100670.78
2023-04-17T23:01:08.323Z,100675.22
2023-04-17T23:03:46.683Z,100672.38
2023-04-17T23:06:19.261Z,100674.81
2023-04-17T23:08:53.718Z,100675.63
2023-04-17T23:11:26.654Z,100674.03
2023-04-17T23:14:10.207Z,100671.59
2023-04-17T23:16:45.839Z,100677.22
2023-04-17T23:19:22.475Z,100681.25
2023-04-17T23:22:03.891Z,100678.44
2023-04-17T23:24:37.715Z,100681.25
2023-04-17T23:27:10.387Z,100675.63
2023-04-17T23:29:49.246Z,100676.00
2023-04-17T23:32:25.419Z,100677.22
2023-04-17T23:35:00.557Z,100672.38
2023-04-17T23:37:36.333Z,100675.59
2023-04-17T23:40:15.087Z,100671.94
2023-04-17T23:42:50.622Z,100670.75
2023-04-17T23:45:29.695Z,100677.59
2023-04-17T23:48:02.550Z,100675.16
2023-04-17T23:50:37.993Z,100678.78
2023-04-17T23:53:14.261Z,100670.31
2023-04-17T23:55:57.938Z,100669.06
2023-04-17T23:58:26.801Z,100669.50
